sensor_id;sensor_type;location;lat;lon;timestamp;pressure;altitude;pressure_sealevel;temperature;humidity
72162;BME280;60047;51.644;5.842;2022-12-07T00:01:05;101650.0;;;20.7;41.0
72162;BME280;60047;51.644;5.842;2022-12-07T00:05:57;101650.0;;;20.7;41.0
72162;BME280;60047;51.644;5.842;2022-12-07T00:11:00;101650.0;;;20.7;41.0
72162;BME280;60047;51.644;5.842;2022-12-07T00:15:55;101650.0;;;20.8;41.0
72162;BME280;60047;51.644;5.842;2022-12-07T00:20:58;101640.0;;;20.8;41.0
72162;BME280;60047;51.644;5.842;2022-12-07T00:25:56;101630.0;;;20.8;41.0
72162;BME280;60047;51.644;5.842;2022-12-07T00:30:59;101640.0;;;20.8;41.0
72162;BME280;60047;51.644;5.842;2022-12-07T00:35:56;101630.0;;;20.8;41.0
72162;BME280;60047;51.644;5.842;2022-12-07T00:40:57;101620.0;;;20.8;41.0
72162;BME280;60047;51.644;5.842;2022-12-07T00:45:56;101620.0;;;20.8;41.0
72162;BME280;60047;51.644;5.842;2022-12-07T00:50:56;101620.0;;;20.8;41.0
72162;BME280;60047;51.644;5.842;2022-12-07T00:55:56;101620.0;;;20.8;41.0
72162;BME280;60047;51.644;5.842;2022-12-07T01:00:59;101610.0;;;20.8;41.0
72162;BME280;60047;51.644;5.842;2022-12-07T01:05:57;101620.0;;;20.8;41.0
72162;BME280;60047;51.644;5.842;2022-12-07T01:10:58;101620.0;;;20.8;41.0
72162;BME280;60047;51.644;5.842;2022-12-07T01:15:57;101620.0;;;20.8;41.0
72162;BME280;60047;51.644;5.842;2022-12-07T01:20:57;101620.0;;;20.8;41.0
72162;BME280;60047;51.644;5.842;2022-12-07T01:25:56;101630.0;;;20.8;41.0
72162;BME280;60047;51.644;5.842;2022-12-07T01:30:56;101620.0;;;20.8;41.0
72162;BME280;60047;51.644;5.842;2022-12-07T01:36:00;101620.0;;;20.8;41.0
72162;BME280;60047;51.644;5.842;2022-12-07T01:40:56;101620.0;;;20.8;41.0
72162;BME280;60047;51.644;5.842;2022-12-07T01:45:56;101620.0;;;20.8;41.0
72162;BME280;60047;51.644;5.842;2022-12-07T01:51:00;101620.0;;;20.8;41.0
72162;BME280;60047;51.644;5.842;2022-12-07T01:55:57;101620.0;;;20.8;41.0
72162;BME280;60047;51.644;5.842;2022-12-07T02:00:56;101630.0;;;20.8;41.0
72162;BME280;60047;51.644;5.842;2022-12-07T02:05:56;101620.0;;;20.8;41.0
72162;BME280;60047;51.644;5.842;2022-12-07T02:10:56;101610.0;;;20.8;41.0
72162;BME280;60047;51.644;5.842;2022-12-07T02:16:19;101620.0;;;20.8;41.0
72162;BME280;60047;51.644;5.842;2022-12-07T02:21:33;101600.0;;;20.8;41.0
72162;BME280;60047;51.644;5.842;2022-12-07T02:27:28;101620.0;;;20.8;41.0
72162;BME280;60047;51.644;5.842;2022-12-07T02:30:58;101620.0;;;20.8;41.0
72162;BME280;60047;51.644;5.842;2022-12-07T02:35:59;101610.0;;;20.8;41.0
72162;BME280;60047;51.644;5.842;2022-12-07T02:41:00;101610.0;;;20.8;41.0
72162;BME280;60047;51.644;5.842;2022-12-07T02:45:59;101610.0;;;20.8;41.0
72162;BME280;60047;51.644;5.842;2022-12-07T02:50:56;101600.0;;;20.8;41.0
72162;BME280;60047;51.644;5.842;2022-12-07T02:55:56;101600.0;;;20.8;41.0
72162;BME280;60047;51.644;5.842;2022-12-07T03:01:25;101610.0;;;20.7;41.0
72162;BME280;60047;51.644;5.842;2022-12-07T03:06:10;101610.0;;;20.7;41.0
72162;BME280;60047;51.644;5.842;2022-12-07T03:11:06;101610.0;;;20.7;41.0
72162;BME280;60047;51.644;5.842;2022-12-07T03:15:58;101610.0;;;20.7;41.0
72162;BME280;60047;51.644;5.842;2022-12-07T03:21:04;101610.0;;;20.8;41.0
72162;BME280;60047;51.644;5.842;2022-12-07T03:25:58;101610.0;;;20.8;41.0
72162;BME280;60047;51.644;5.842;2022-12-07T03:31:05;101610.0;;;20.8;41.0
72162;BME280;60047;51.644;5.842;2022-12-07T03:36:00;101610.0;;;20.8;41.0
72162;BME280;60047;51.644;5.842;2022-12-07T03:41:06;101610.0;;;20.8;41.0
72162;BME280;60047;51.644;5.842;2022-12-07T03:46:04;101600.0;;;20.8;41.0
72162;BME280;60047;51.644;5.842;2022-12-07T03:51:00;101590.0;;;20.8;41.0
72162;BME280;60047;51.644;5.842;2022-12-07T03:55:57;101600.0;;;20.8;41.0
72162;BME280;60047;51.644;5.842;2022-12-07T04:00:56;101600.0;;;20.8;41.0
72162;BME280;60047;51.644;5.842;2022-12-07T04:05:56;101610.0;;;20.8;41.0
72162;BME280;60047;51.644;5.842;2022-12-07T04:10:56;101600.0;;;20.9;41.0
72162;BME280;60047;51.644;5.842;2022-12-07T04:15:56;101600.0;;;20.9;41.0
72162;BME280;60047;51.644;5.842;2022-12-07T04:20:56;101600.0;;;20.9;41.0
72162;BME280;60047;51.644;5.842;2022-12-07T04:25:56;101590.0;;;20.9;41.0
72162;BME280;60047;51.644;5.842;2022-12-07T04:30:56;101600.0;;;20.9;41.0
72162;BME280;60047;51.644;5.842;2022-12-07T04:35:56;101610.0;;;20.9;41.0
72162;BME280;60047;51.644;5.842;2022-12-07T04:40:56;101610.0;;;20.9;41.0
72162;BME280;60047;51.644;5.842;2022-12-07T04:45:56;101580.0;;;20.9;40.5
72162;BME280;60047;51.644;5.842;2022-12-07T04:50:56;101580.0;;;20.9;40.5
72162;BME280;60047;51.644;5.842;2022-12-07T04:55:56;101580.0;;;20.9;40.5
72162;BME280;60047;51.644;5.842;2022-12-07T05:00:56;101580.0;;;20.9;40.5
72162;BME280;60047;51.644;5.842;2022-12-07T05:05:56;101570.0;;;20.9;40.5
72162;BME280;60047;51.644;5.842;2022-12-07T05:10:56;101580.0;;;20.9;40.5
72162;BME280;60047;51.644;5.842;2022-12-07T05:15:56;101580.0;;;20.9;40.5
72162;BME280;60047;51.644;5.842;2022-12-07T05:20:56;101580.0;;;20.9;40.5
72162;BME280;60047;51.644;5.842;2022-12-07T05:25:56;101590.0;;;20.9;40.5
72162;BME280;60047;51.644;5.842;2022-12-07T05:30:56;101580.0;;;20.9;40.5
72162;BME280;60047;51.644;5.842;2022-12-07T05:35:56;101570.0;;;20.9;40.5
72162;BME280;60047;51.644;5.842;2022-12-07T05:40:59;101590.0;;;21.0;40.5
72162;BME280;60047;51.644;5.842;2022-12-07T05:45:56;101580.0;;;21.0;40.5
72162;BME280;60047;51.644;5.842;2022-12-07T05:50:56;101580.0;;;21.0;40.5
72162;BME280;60047;51.644;5.842;2022-12-07T05:55:56;101590.0;;;21.0;40.5
72162;BME280;60047;51.644;5.842;2022-12-07T06:00:57;101570.0;;;20.9;40.5
72162;BME280;60047;51.644;5.842;2022-12-07T06:05:56;101570.0;;;21.0;40.5
72162;BME280;60047;51.644;5.842;2022-12-07T06:10:57;101570.0;;;20.9;40.5
72162;BME280;60047;51.644;5.842;2022-12-07T06:15:56;101570.0;;;21.0;40.5
72162;BME280;60047;51.644;5.842;2022-12-07T06:20:57;101570.0;;;21.0;40.5
72162;BME280;60047;51.644;5.842;2022-12-07T06:25:56;101580.0;;;21.0;40.5
72162;BME280;60047;51.644;5.842;2022-12-07T06:30:57;101570.0;;;21.0;40.5
72162;BME280;60047;51.644;5.842;2022-12-07T06:35:57;101570.0;;;21.0;40.5
72162;BME280;60047;51.644;5.842;2022-12-07T06:40:57;101570.0;;;21.0;40.5
72162;BME280;60047;51.644;5.842;2022-12-07T06:45:57;101580.0;;;21.0;40.5
72162;BME280;60047;51.644;5.842;2022-12-07T06:50:57;101580.0;;;21.0;40.5
72162;BME280;60047;51.644;5.842;2022-12-07T06:55:57;101580.0;;;21.0;40.5
72162;BME280;60047;51.644;5.842;2022-12-07T07:00:57;101590.0;;;21.0;40.5
72162;BME280;60047;51.644;5.842;2022-12-07T07:05:57;101580.0;;;21.0;40.5
72162;BME280;60047;51.644;5.842;2022-12-07T07:10:57;101580.0;;;21.0;40.5
72162;BME280;60047;51.644;5.842;2022-12-07T07:15:57;101580.0;;;21.0;40.5
72162;BME280;60047;51.644;5.842;2022-12-07T07:20:57;101590.0;;;21.0;40.5
72162;BME280;60047;51.644;5.842;2022-12-07T07:25:57;101590.0;;;21.0;40.5
72162;BME280;60047;51.644;5.842;2022-12-07T07:30:57;101590.0;;;21.0;40.5
72162;BME280;60047;51.644;5.842;2022-12-07T07:35:57;101590.0;;;21.0;40.5
72162;BME280;60047;51.644;5.842;2022-12-07T07:40:57;101590.0;;;21.0;40.5
72162;BME280;60047;51.644;5.842;2022-12-07T07:45:57;101600.0;;;21.0;40.5
72162;BME280;60047;51.644;5.842;2022-12-07T07:50:57;101600.0;;;21.0;40.5
72162;BME280;60047;51.644;5.842;2022-12-07T07:55:57;101600.0;;;21.0;40.5
72162;BME280;60047;51.644;5.842;2022-12-07T08:01:02;101590.0;;;21.0;40.5
72162;BME280;60047;51.644;5.842;2022-12-07T08:05:57;101600.0;;;21.0;40.5
72162;BME280;60047;51.644;5.842;2022-12-07T08:10:57;101600.0;;;21.0;40.5
72162;BME280;60047;51.644;5.842;2022-12-07T08:15:57;101590.0;;;21.0;40.5
72162;BME280;60047;51.644;5.842;2022-12-07T08:20:58;101590.0;;;21.0;40.5
72162;BME280;60047;51.644;5.842;2022-12-07T08:25:59;101610.0;;;21.0;40.5
72162;BME280;60047;51.644;5.842;2022-12-07T08:30:58;101610.0;;;21.0;40.5
72162;BME280;60047;51.644;5.842;2022-12-07T08:36:00;101610.0;;;21.0;40.5
72162;BME280;60047;51.644;5.842;2022-12-07T08:40:58;101620.0;;;21.0;40.5
72162;BME280;60047;51.644;5.842;2022-12-07T08:46:03;101620.0;;;21.0;41.0
72162;BME280;60047;51.644;5.842;2022-12-07T08:50:57;101620.0;;;21.0;40.5
72162;BME280;60047;51.644;5.842;2022-12-07T08:55:57;101620.0;;;21.0;40.5
72162;BME280;60047;51.644;5.842;2022-12-07T09:00:57;101620.0;;;21.0;40.5
72162;BME280;60047;51.644;5.842;2022-12-07T09:05:58;101620.0;;;21.0;40.5
72162;BME280;60047;51.644;5.842;2022-12-07T09:10:58;101610.0;;;21.0;40.5
72162;BME280;60047;51.644;5.842;2022-12-07T09:15:57;101610.0;;;21.0;40.5
72162;BME280;60047;51.644;5.842;2022-12-07T09:20:57;101610.0;;;21.0;40.5
72162;BME280;60047;51.644;5.842;2022-12-07T09:25:58;101620.0;;;21.0;40.5
72162;BME280;60047;51.644;5.842;2022-12-07T09:30:57;101620.0;;;21.0;40.5
72162;BME280;60047;51.644;5.842;2022-12-07T09:35:57;101620.0;;;21.0;40.5
72162;BME280;60047;51.644;5.842;2022-12-07T09:40:57;101620.0;;;21.0;40.5
72162;BME280;60047;51.644;5.842;2022-12-07T09:45:57;101620.0;;;21.0;40.5
72162;BME280;60047;51.644;5.842;2022-12-07T09:50:59;101610.0;;;21.0;40.5
72162;BME280;60047;51.644;5.842;2022-12-07T09:55:58;101620.0;;;21.0;40.5
72162;BME280;60047;51.644;5.842;2022-12-07T10:01:01;101600.0;;;21.0;40.5
72162;BME280;60047;51.644;5.842;2022-12-07T10:05:57;101600.0;;;21.0;40.5
72162;BME280;60047;51.644;5.842;2022-12-07T10:10:58;101590.0;;;21.0;40.5
72162;BME280;60047;51.644;5.842;2022-12-07T10:15:57;101600.0;;;21.0;40.5
72162;BME280;60047;51.644;5.842;2022-12-07T10:21:04;101600.0;;;21.0;40.5
72162;BME280;60047;51.644;5.842;2022-12-07T10:25:57;101580.0;;;21.0;40.5
72162;BME280;60047;51.644;5.842;2022-12-07T10:31:01;101590.0;;;21.0;40.5
72162;BME280;60047;51.644;5.842;2022-12-07T10:35:58;101580.0;;;21.0;40.5
72162;BME280;60047;51.644;5.842;2022-12-07T10:41:06;101560.0;;;20.9;40.5
72162;BME280;60047;51.644;5.842;2022-12-07T10:46:45;101570.0;;;20.9;40.5
72162;BME280;60047;51.644;5.842;2022-12-07T10:51:43;101560.0;;;20.9;40.5
72162;BME280;60047;51.644;5.842;2022-12-07T10:57:02;101550.0;;;20.9;40.5
72162;BME280;60047;51.644;5.842;2022-12-07T11:01:23;101550.0;;;20.9;40.5
72162;BME280;60047;51.644;5.842;2022-12-07T11:06:54;101550.0;;;20.9;40.5
72162;BME280;60047;51.644;5.842;2022-12-07T11:12:13;101540.0;;;20.9;40.5
72162;BME280;60047;51.644;5.842;2022-12-07T11:16:56;101540.0;;;20.9;40.5
72162;BME280;60047;51.644;5.842;2022-12-07T11:21:24;101540.0;;;20.9;40.5
72162;BME280;60047;51.644;5.842;2022-12-07T11:26:23;101520.0;;;20.9;40.5
72162;BME280;60047;51.644;5.842;2022-12-07T11:31:37;101520.0;;;20.9;40.5
72162;BME280;60047;51.644;5.842;2022-12-07T11:36:33;101520.0;;;20.9;40.5
72162;BME280;60047;51.644;5.842;2022-12-07T11:41:00;101510.0;;;20.9;40.5
72162;BME280;60047;51.644;5.842;2022-12-07T11:46:03;101510.0;;;20.9;40.5
72162;BME280;60047;51.644;5.842;2022-12-07T11:51:00;101490.0;;;20.9;40.5
72162;BME280;60047;51.644;5.842;2022-12-07T11:56:07;101510.0;;;20.9;40.5
72162;BME280;60047;51.644;5.842;2022-12-07T12:01:15;101500.0;;;20.9;40.5
72162;BME280;60047;51.644;5.842;2022-12-07T12:05:58;101500.0;;;20.9;40.5
72162;BME280;60047;51.644;5.842;2022-12-07T12:11:08;101490.0;;;20.9;40.5
72162;BME280;60047;51.644;5.842;2022-12-07T12:17:40;101490.0;;;20.9;40.5
72162;BME280;60047;51.644;5.842;2022-12-07T12:21:31;101490.0;;;20.9;40.5
72162;BME280;60047;51.644;5.842;2022-12-07T12:26:00;101500.0;;;20.9;40.5
72162;BME280;60047;51.644;5.842;2022-12-07T12:31:13;101490.0;;;20.9;40.5
72162;BME280;60047;51.644;5.842;2022-12-07T12:36:47;101480.0;;;20.9;40.5
72162;BME280;60047;51.644;5.842;2022-12-07T12:40:58;101480.0;;;20.8;40.5
72162;BME280;60047;51.644;5.842;2022-12-07T12:46:38;101460.0;;;20.8;40.5
72162;BME280;60047;51.644;5.842;2022-12-07T12:51:39;101460.0;;;20.8;40.5
72162;BME280;60047;51.644;5.842;2022-12-07T12:56:41;101450.0;;;20.7;40.5
72162;BME280;60047;51.644;5.842;2022-12-07T13:01:33;101450.0;;;20.7;40.5
72162;BME280;60047;51.644;5.842;2022-12-07T13:06:34;101440.0;;;20.7;40.5
72162;BME280;60047;51.644;5.842;2022-12-07T13:11:18;101440.0;;;20.7;40.5
72162;BME280;60047;51.644;5.842;2022-12-07T13:16:37;101430.0;;;20.8;40.5
72162;BME280;60047;51.644;5.842;2022-12-07T13:20:58;101440.0;;;20.8;40.5
72162;BME280;60047;51.644;5.842;2022-12-07T13:26:00;101420.0;;;20.9;40.5
72162;BME280;60047;51.644;5.842;2022-12-07T13:31:09;101430.0;;;20.9;40.5
72162;BME280;60047;51.644;5.842;2022-12-07T13:35:58;101410.0;;;21.0;40.5
72162;BME280;60047;51.644;5.842;2022-12-07T13:41:18;101400.0;;;21.0;40.0
72162;BME280;60047;51.644;5.842;2022-12-07T13:45:59;101400.0;;;21.1;40.0
72162;BME280;60047;51.644;5.842;2022-12-07T13:50:59;101390.0;;;21.2;40.0
72162;BME280;60047;51.644;5.842;2022-12-07T13:55:59;101390.0;;;21.2;40.0
72162;BME280;60047;51.644;5.842;2022-12-07T14:00:58;101390.0;;;21.3;40.0
72162;BME280;60047;51.644;5.842;2022-12-07T14:06:10;101390.0;;;21.4;39.5
72162;BME280;60047;51.644;5.842;2022-12-07T14:11:00;101390.0;;;21.5;39.5
72162;BME280;60047;51.644;5.842;2022-12-07T14:15:58;101380.0;;;21.4;39.5
72162;BME280;60047;51.644;5.842;2022-12-07T14:21:14;101370.0;;;21.4;39.5
72162;BME280;60047;51.644;5.842;2022-12-07T14:26:06;101370.0;;;21.3;39.5
72162;BME280;60047;51.644;5.842;2022-12-07T14:30:59;101370.0;;;21.2;39.5
72162;BME280;60047;51.644;5.842;2022-12-07T14:35:58;101360.0;;;21.1;40.0
72162;BME280;60047;51.644;5.842;2022-12-07T14:40:58;101360.0;;;21.0;40.5
72162;BME280;60047;51.644;5.842;2022-12-07T14:45:58;101370.0;;;21.0;40.5
72162;BME280;60047;51.644;5.842;2022-12-07T14:55:58;101370.0;;;20.9;40.5
72162;BME280;60047;51.644;5.842;2022-12-07T15:00:58;101360.0;;;20.9;41.0
72162;BME280;60047;51.644;5.842;2022-12-07T15:05:58;101350.0;;;20.9;41.0
72162;BME280;60047;51.644;5.842;2022-12-07T15:10:58;101360.0;;;20.9;41.0
72162;BME280;60047;51.644;5.842;2022-12-07T15:15:59;101350.0;;;20.8;41.0
72162;BME280;60047;51.644;5.842;2022-12-07T15:20:58;101350.0;;;20.8;41.0
72162;BME280;60047;51.644;5.842;2022-12-07T15:25:58;101350.0;;;20.8;41.0
72162;BME280;60047;51.644;5.842;2022-12-07T15:30:58;101350.0;;;20.8;41.0
72162;BME280;60047;51.644;5.842;2022-12-07T15:35:58;101350.0;;;20.8;41.0
72162;BME280;60047;51.644;5.842;2022-12-07T15:40:58;101360.0;;;20.8;41.0
72162;BME280;60047;51.644;5.842;2022-12-07T15:45:59;101330.0;;;20.8;41.0
72162;BME280;60047;51.644;5.842;2022-12-07T15:51:01;101330.0;;;20.8;41.0
72162;BME280;60047;51.644;5.842;2022-12-07T15:55:58;101340.0;;;20.8;41.0
72162;BME280;60047;51.644;5.842;2022-12-07T16:00:58;101330.0;;;20.8;41.0
72162;BME280;60047;51.644;5.842;2022-12-07T16:05:58;101320.0;;;20.8;41.0
72162;BME280;60047;51.644;5.842;2022-12-07T16:10:58;101320.0;;;20.8;41.0
72162;BME280;60047;51.644;5.842;2022-12-07T16:16:01;101310.0;;;20.8;41.0
72162;BME280;60047;51.644;5.842;2022-12-07T16:20:58;101310.0;;;20.7;41.0
72162;BME280;60047;51.644;5.842;2022-12-07T16:26:03;101300.0;;;20.8;41.0
72162;BME280;60047;51.644;5.842;2022-12-07T16:30:59;101300.0;;;20.7;41.0
72162;BME280;60047;51.644;5.842;2022-12-07T16:35:58;101300.0;;;20.8;41.0
72162;BME280;60047;51.644;5.842;2022-12-07T16:40:58;101300.0;;;20.7;41.0
72162;BME280;60047;51.644;5.842;2022-12-07T16:45:58;101300.0;;;20.7;41.0
72162;BME280;60047;51.644;5.842;2022-12-07T16:51:02;101290.0;;;20.7;41.0
72162;BME280;60047;51.644;5.842;2022-12-07T16:55:58;101290.0;;;20.7;41.0
72162;BME280;60047;51.644;5.842;2022-12-07T17:00:58;101290.0;;;20.7;41.0
72162;BME280;60047;51.644;5.842;2022-12-07T17:05:58;101290.0;;;20.7;41.0
72162;BME280;60047;51.644;5.842;2022-12-07T17:10:58;101280.0;;;20.7;41.0
72162;BME280;60047;51.644;5.842;2022-12-07T17:16:00;101290.0;;;20.7;41.0
72162;BME280;60047;51.644;5.842;2022-12-07T17:21:02;101280.0;;;20.7;41.0
72162;BME280;60047;51.644;5.842;2022-12-07T17:26:04;101270.0;;;20.7;41.0
72162;BME280;60047;51.644;5.842;2022-12-07T17:30:58;101260.0;;;20.7;41.0
72162;BME280;60047;51.644;5.842;2022-12-07T17:35:58;101260.0;;;20.7;41.0
72162;BME280;60047;51.644;5.842;2022-12-07T17:40:58;101260.0;;;20.7;41.0
72162;BME280;60047;51.644;5.842;2022-12-07T17:46:04;101250.0;;;20.7;40.5
72162;BME280;60047;51.644;5.842;2022-12-07T17:50:58;101240.0;;;20.7;41.0
72162;BME280;60047;51.644;5.842;2022-12-07T17:55:58;101240.0;;;20.7;41.0
72162;BME280;60047;51.644;5.842;2022-12-07T18:00:58;101230.0;;;20.7;41.0
72162;BME280;60047;51.644;5.842;2022-12-07T18:05:59;101240.0;;;20.7;41.0
72162;BME280;60047;51.644;5.842;2022-12-07T18:10:59;101240.0;;;20.7;40.5
72162;BME280;60047;51.644;5.842;2022-12-07T18:15:58;101240.0;;;20.7;41.0
72162;BME280;60047;51.644;5.842;2022-12-07T18:21:01;101220.0;;;20.7;41.0
72162;BME280;60047;51.644;5.842;2022-12-07T18:25:59;101220.0;;;20.7;41.0
72162;BME280;60047;51.644;5.842;2022-12-07T18:30:59;101220.0;;;20.7;40.5
72162;BME280;60047;51.644;5.842;2022-12-07T18:35:59;101220.0;;;20.7;41.0
72162;BME280;60047;51.644;5.842;2022-12-07T18:40:59;101210.0;;;20.7;41.0
72162;BME280;60047;51.644;5.842;2022-12-07T18:45:58;101210.0;;;20.7;41.0
72162;BME280;60047;51.644;5.842;2022-12-07T18:51:03;101200.0;;;20.7;41.0
72162;BME280;60047;51.644;5.842;2022-12-07T18:56:00;101200.0;;;20.7;41.0
72162;BME280;60047;51.644;5.842;2022-12-07T19:00:58;101200.0;;;20.7;41.0
72162;BME280;60047;51.644;5.842;2022-12-07T19:06:04;101210.0;;;20.7;41.0
72162;BME280;60047;51.644;5.842;2022-12-07T19:10:59;101200.0;;;20.7;41.0
72162;BME280;60047;51.644;5.842;2022-12-07T19:15:59;101210.0;;;20.7;41.0
72162;BME280;60047;51.644;5.842;2022-12-07T19:21:01;101200.0;;;20.7;41.0
72162;BME280;60047;51.644;5.842;2022-12-07T19:25:59;101200.0;;;20.7;41.0
72162;BME280;60047;51.644;5.842;2022-12-07T19:30:59;101200.0;;;20.7;41.0
72162;BME280;60047;51.644;5.842;2022-12-07T19:35:59;101190.0;;;20.7;41.0
72162;BME280;60047;51.644;5.842;2022-12-07T19:41:02;101200.0;;;20.7;41.0
72162;BME280;60047;51.644;5.842;2022-12-07T19:46:02;101200.0;;;20.7;41.0
72162;BME280;60047;51.644;5.842;2022-12-07T19:51:01;101200.0;;;20.7;41.0
72162;BME280;60047;51.644;5.842;2022-12-07T19:55:59;101190.0;;;20.7;41.0
72162;BME280;60047;51.644;5.842;2022-12-07T20:01:01;101190.0;;;20.7;41.0
72162;BME280;60047;51.644;5.842;2022-12-07T20:05:59;101190.0;;;20.7;41.0
72162;BME280;60047;51.644;5.842;2022-12-07T20:10:59;101190.0;;;20.7;41.0
72162;BME280;60047;51.644;5.842;2022-12-07T20:16:02;101180.0;;;20.7;41.0
72162;BME280;60047;51.644;5.842;2022-12-07T20:20:59;101170.0;;;20.7;41.0
72162;BME280;60047;51.644;5.842;2022-12-07T20:26:01;101170.0;;;20.7;41.0
72162;BME280;60047;51.644;5.842;2022-12-07T20:30:59;101170.0;;;20.7;41.0
72162;BME280;60047;51.644;5.842;2022-12-07T20:35:59;101160.0;;;20.7;41.0
72162;BME280;60047;51.644;5.842;2022-12-07T20:41:03;101150.0;;;20.7;41.0
72162;BME280;60047;51.644;5.842;2022-12-07T20:45:59;101140.0;;;20.7;41.0
72162;BME280;60047;51.644;5.842;2022-12-07T20:51:03;101140.0;;;20.7;41.0
72162;BME280;60047;51.644;5.842;2022-12-07T20:55:59;101130.0;;;20.7;41.0
72162;BME280;60047;51.644;5.842;2022-12-07T21:00:59;101140.0;;;20.7;41.0
72162;BME280;60047;51.644;5.842;2022-12-07T21:06:00;101130.0;;;20.7;41.0
72162;BME280;60047;51.644;5.842;2022-12-07T21:11:04;101130.0;;;20.7;41.0
72162;BME280;60047;51.644;5.842;2022-12-07T21:15:59;101110.0;;;20.7;41.0
72162;BME280;60047;51.644;5.842;2022-12-07T21:21:00;101110.0;;;20.7;41.0
72162;BME280;60047;51.644;5.842;2022-12-07T21:25:59;101120.0;;;20.7;41.0
72162;BME280;60047;51.644;5.842;2022-12-07T21:30:59;101120.0;;;20.7;41.0
72162;BME280;60047;51.644;5.842;2022-12-07T21:36:01;101110.0;;;20.7;41.0
72162;BME280;60047;51.644;5.842;2022-12-07T21:40:59;101100.0;;;20.7;41.0
72162;BME280;60047;51.644;5.842;2022-12-07T21:45:59;101100.0;;;20.7;41.0
72162;BME280;60047;51.644;5.842;2022-12-07T21:51:03;101100.0;;;20.7;41.5
72162;BME280;60047;51.644;5.842;2022-12-07T21:55:59;101100.0;;;20.8;41.5
72162;BME280;60047;51.644;5.842;2022-12-07T22:00:59;101100.0;;;20.8;41.5
72162;BME280;60047;51.644;5.842;2022-12-07T22:06:00;101100.0;;;20.8;42.0
72162;BME280;60047;51.644;5.842;2022-12-07T22:11:00;101090.0;;;20.9;42.0
72162;BME280;60047;51.644;5.842;2022-12-07T22:15:59;101090.0;;;20.9;42.0
72162;BME280;60047;51.644;5.842;2022-12-07T22:20:59;101090.0;;;20.9;42.0
72162;BME280;60047;51.644;5.842;2022-12-07T22:26:03;101080.0;;;20.9;42.0
72162;BME280;60047;51.644;5.842;2022-12-07T22:31:01;101080.0;;;20.9;42.0
72162;BME280;60047;51.644;5.842;2022-12-07T22:35:59;101070.0;;;20.8;42.0
72162;BME280;60047;51.644;5.842;2022-12-07T22:41:07;101060.0;;;20.8;42.0
72162;BME280;60047;51.644;5.842;2022-12-07T22:45:59;101060.0;;;20.8;42.0
72162;BME280;60047;51.644;5.842;2022-12-07T22:50:59;101040.0;;;20.8;42.0
72162;BME280;60047;51.644;5.842;2022-12-07T22:55:59;101040.0;;;20.8;42.0
72162;BME280;60047;51.644;5.842;2022-12-07T23:01:05;101030.0;;;20.8;42.0
72162;BME280;60047;51.644;5.842;2022-12-07T23:06:05;101010.0;;;20.8;42.0
72162;BME280;60047;51.644;5.842;2022-12-07T23:10:59;101010.0;;;20.8;42.0
72162;BME280;60047;51.644;5.842;2022-12-07T23:16:06;101000.0;;;20.8;42.0
72162;BME280;60047;51.644;5.842;2022-12-07T23:20:59;101010.0;;;20.8;42.0
72162;BME280;60047;51.644;5.842;2022-12-07T23:26:02;101010.0;;;20.8;42.0
72162;BME280;60047;51.644;5.842;2022-12-07T23:31:01;101000.0;;;20.8;42.0
72162;BME280;60047;51.644;5.842;2022-12-07T23:36:06;100990.0;;;20.8;42.0
72162;BME280;60047;51.644;5.842;2022-12-07T23:41:02;100990.0;;;20.7;42.0
72162;BME280;60047;51.644;5.842;2022-12-07T23:45:59;100980.0;;;20.7;41.5
72162;BME280;60047;51.644;5.842;2022-12-07T23:50:59;100980.0;;;20.8;41.5
72162;BME280;60047;51.644;5.842;2022-12-07T23:55:59;100980.0;;;20.7;41.5
